createdAt,value
2022-08-18T00:01:16.511Z,22.81
2022-08-18T00:03:57.049Z,22.82
2022-08-18T00:06:30.367Z,22.76
2022-08-18T00:09:03.560Z,22.66
2022-08-18T00:11:41.701Z,22.58
2022-08-18T00:14:22.434Z,22.52
2022-08-18T00:16:52.344Z,22.45
2022-08-18T00:19:18.925Z,22.45
2022-08-18T00:21:45.483Z,22.43
2022-08-18T00:24:12.045Z,22.36
2022-08-18T00:26:38.633Z,22.33
2022-08-18T00:29:05.219Z,22.25
2022-08-18T00:31:32.386Z,22.05
2022-08-18T00:33:59.115Z,21.90
2022-08-18T00:36:26.163Z,22.01
2022-08-18T00:38:54.093Z,22.10
2022-08-18T00:41:21.766Z,22.17
2022-08-18T00:43:51.252Z,22.14
2022-08-18T00:46:24.916Z,22.15
2022-08-18T00:48:52.718Z,22.19
2022-08-18T00:51:30.343Z,22.24
2022-08-18T00:54:03.296Z,22.33
2022-08-18T00:56:35.713Z,22.34
2022-08-18T00:59:16.054Z,22.35
2022-08-18T01:01:44.900Z,22.32
2022-08-18T01:04:20.638Z,22.34
2022-08-18T01:06:53.819Z,22.40
2022-08-18T01:09:20.640Z,22.42
2022-08-18T01:11:47.353Z,22.41
2022-08-18T01:14:18.350Z,22.37
2022-08-18T01:17:07.986Z,22.35
2022-08-18T01:19:53.863Z,22.24
2022-08-18T01:22:37.210Z,22.28
2022-08-18T01:25:26.086Z,22.28
2022-08-18T01:27:56.057Z,22.25
2022-08-18T01:30:27.654Z,22.26
2022-08-18T01:32:54.210Z,22.22
2022-08-18T01:35:23.592Z,22.17
2022-08-18T01:37:50.245Z,22.13
2022-08-18T01:41:23.964Z,22.08
2022-08-18T01:43:07.431Z,22.02
2022-08-18T01:45:34.601Z,22.05
2022-08-18T01:48:01.663Z,22.09
2022-08-18T01:50:28.385Z,22.12
2022-08-18T01:52:54.976Z,22.07
2022-08-18T01:55:22.087Z,22.05
2022-08-18T01:57:48.864Z,22.07
2022-08-18T02:00:18.224Z,22.09
2022-08-18T02:02:45.205Z,22.14
2022-08-18T02:05:21.074Z,22.14
2022-08-18T02:07:47.734Z,22.14
2022-08-18T02:10:20.738Z,22.20
2022-08-18T02:12:47.325Z,22.28
2022-08-18T02:15:13.942Z,22.30
2022-08-18T02:17:45.825Z,22.28
2022-08-18T02:20:15.910Z,22.35
2022-08-18T02:22:43.498Z,22.36
2022-08-18T02:25:11.357Z,22.39
2022-08-18T02:27:38.207Z,22.35
2022-08-18T02:30:09.009Z,22.33
2022-08-18T02:32:35.743Z,22.32
2022-08-18T02:35:05.003Z,22.30
2022-08-18T02:37:35.336Z,22.35
2022-08-18T02:40:02.164Z,22.35
2022-08-18T02:42:29.075Z,22.38
2022-08-18T02:44:55.654Z,22.24
2022-08-18T02:47:22.803Z,22.23
2022-08-18T02:49:49.548Z,22.24
2022-08-18T02:52:17.359Z,22.34
2022-08-18T02:54:44.064Z,22.36
2022-08-18T02:57:12.389Z,22.32
2022-08-18T02:59:40.320Z,22.22
2022-08-18T03:02:08.621Z,22.08
2022-08-18T03:04:35.235Z,22.18
2022-08-18T03:07:04.577Z,22.26
2022-08-18T03:09:32.126Z,22.38
2022-08-18T03:11:59.030Z,22.45
2022-08-18T03:14:25.663Z,22.40
2022-08-18T03:16:53.781Z,22.38
2022-08-18T03:19:28.518Z,22.34
2022-08-18T03:21:58.992Z,22.32
2022-08-18T03:24:29.512Z,22.18
2022-08-18T03:26:57.299Z,22.10
2022-08-18T03:29:29.265Z,21.98
2022-08-18T03:31:58.803Z,21.79
2022-08-18T03:34:25.330Z,21.64
2022-08-18T03:36:51.929Z,21.57
2022-08-18T03:39:20.526Z,21.25
2022-08-18T03:41:58.274Z,20.89
2022-08-18T03:44:30.723Z,20.54
2022-08-18T03:46:58.146Z,20.39
2022-08-18T03:49:26.832Z,20.37
2022-08-18T03:51:53.471Z,20.28
2022-08-18T03:54:20.062Z,20.27
2022-08-18T03:56:48.146Z,20.20
2022-08-18T03:59:22.419Z,20.21
2022-08-18T04:01:52.151Z,20.19
2022-08-18T04:04:23.222Z,20.10
2022-08-18T04:06:57.139Z,20.08
2022-08-18T04:09:25.723Z,20.25
2022-08-18T04:11:52.489Z,20.35
2022-08-18T04:14:21.202Z,20.33
2022-08-18T04:16:49.197Z,20.42
2022-08-18T04:19:25.176Z,20.45
2022-08-18T04:21:55.634Z,20.36
2022-08-18T04:24:22.331Z,20.19
2022-08-18T04:26:49.925Z,20.21
2022-08-18T04:29:18.542Z,20.21
2022-08-18T04:31:45.018Z,20.15
2022-08-18T04:34:12.421Z,20.16
2022-08-18T04:36:39.660Z,20.24
2022-08-18T04:39:08.690Z,20.34
2022-08-18T04:41:37.111Z,20.30
2022-08-18T04:44:08.578Z,20.28
2022-08-18T04:46:41.332Z,20.38
2022-08-18T04:49:09.274Z,20.56
2022-08-18T04:52:26.722Z,20.71
2022-08-18T04:54:24.876Z,20.87
2022-08-18T04:56:51.301Z,20.83
2022-08-18T04:59:18.394Z,21.00
2022-08-18T05:01:47.524Z,20.96
2022-08-18T05:04:16.851Z,20.89
2022-08-18T05:06:44.772Z,20.90
2022-08-18T05:09:16.584Z,20.62
2022-08-18T05:11:50.671Z,20.55
2022-08-18T05:14:18.250Z,20.44
2022-08-18T05:16:48.709Z,20.50
2022-08-18T05:19:25.914Z,20.53
2022-08-18T05:21:59.689Z,20.57
2022-08-18T05:24:33.695Z,20.48
2022-08-18T05:27:04.177Z,20.62
2022-08-18T05:29:41.981Z,20.67
2022-08-18T05:32:30.387Z,20.80
2022-08-18T05:35:14.135Z,20.96
2022-08-18T05:37:52.455Z,21.09
2022-08-18T05:40:22.864Z,21.25
2022-08-18T05:42:49.719Z,21.41
2022-08-18T05:45:18.626Z,21.62
2022-08-18T05:47:45.398Z,21.81
2022-08-18T05:50:17.262Z,22.03
2022-08-18T05:53:03.853Z,22.07
2022-08-18T05:56:19.135Z,22.16
2022-08-18T05:58:50.986Z,22.26
2022-08-18T06:01:30.369Z,22.33
2022-08-18T06:04:04.915Z,22.48
2022-08-18T06:06:33.997Z,22.54
2022-08-18T06:09:10.633Z,22.55
2022-08-18T06:11:37.206Z,22.57
2022-08-18T06:14:03.976Z,22.57
2022-08-18T06:16:56.283Z,22.59
2022-08-18T06:19:52.877Z,22.59
2022-08-18T06:22:53.493Z,22.67
2022-08-18T06:25:55.309Z,22.79
2022-08-18T06:28:22.322Z,23.11
2022-08-18T06:30:49.564Z,23.54
2022-08-18T06:33:47.181Z,23.77
2022-08-18T06:36:36.237Z,23.72
2022-08-18T06:39:17.554Z,23.80
2022-08-18T06:41:49.983Z,24.46
2022-08-18T06:44:23.231Z,24.66
2022-08-18T06:47:26.382Z,24.56
2022-08-18T06:50:18.400Z,24.33
2022-08-18T06:52:54.579Z,24.10
2022-08-18T06:55:45.778Z,23.82
2022-08-18T06:58:12.249Z,23.59
2022-08-18T07:00:42.660Z,23.49
2022-08-18T07:03:39.931Z,23.33
2022-08-18T07:06:18.749Z,23.08
2022-08-18T07:08:45.871Z,23.13
2022-08-18T07:11:17.589Z,23.14
2022-08-18T07:13:47.958Z,23.07
2022-08-18T07:16:56.634Z,22.92
2022-08-18T07:19:20.609Z,22.78
2022-08-18T07:22:09.016Z,22.59
2022-08-18T07:24:42.045Z,22.38
2022-08-18T07:27:12.842Z,22.20
2022-08-18T07:29:58.891Z,21.92
2022-08-18T07:32:34.529Z,21.59
2022-08-18T07:35:04.579Z,21.38
2022-08-18T07:37:36.746Z,21.38
2022-08-18T07:40:16.629Z,21.37
2022-08-18T07:43:03.198Z,21.35
2022-08-18T07:45:35.847Z,21.43
2022-08-18T07:48:37.128Z,21.45
2022-08-18T07:51:21.828Z,21.39
2022-08-18T07:54:47.115Z,21.42
2022-08-18T07:57:05.887Z,21.29
2022-08-18T07:59:52.734Z,21.14
2022-08-18T08:02:32.201Z,21.08
2022-08-18T08:05:13.346Z,21.09
2022-08-18T08:07:55.797Z,21.22
2022-08-18T08:10:32.079Z,21.44
2022-08-18T08:13:10.199Z,21.67
2022-08-18T08:16:15.438Z,21.85
2022-08-18T08:19:03.326Z,21.78
2022-08-18T08:21:52.992Z,21.99
2022-08-18T08:24:29.872Z,22.23
2022-08-18T08:26:56.380Z,22.30
2022-08-18T08:29:41.139Z,22.49
2022-08-18T08:32:36.264Z,22.68
2022-08-18T08:35:47.277Z,22.80
2022-08-18T08:38:40.118Z,22.81
2022-08-18T08:41:14.399Z,22.87
2022-08-18T08:43:46.413Z,22.95
2022-08-18T08:46:20.060Z,23.09
2022-08-18T08:49:34.540Z,23.36
2022-08-18T08:52:11.809Z,23.60
2022-08-18T08:54:42.747Z,23.82
2022-08-18T08:57:13.783Z,23.84
2022-08-18T08:59:42.777Z,23.87
2022-08-18T09:02:46.803Z,23.91
2022-08-18T09:05:25.621Z,23.98
2022-08-18T09:08:03.068Z,24.01
2022-08-18T09:10:51.425Z,24.07
2022-08-18T09:13:39.826Z,24.09
2022-08-18T09:16:24.358Z,24.25
2022-08-18T09:19:12.850Z,24.34
2022-08-18T09:22:11.005Z,24.49
2022-08-18T09:24:56.558Z,24.54
2022-08-18T09:27:23.045Z,24.48
2022-08-18T09:29:54.999Z,24.31
2022-08-18T09:35:54.597Z,23.71
2022-08-18T09:38:45.127Z,23.40
2022-08-18T09:41:34.437Z,23.15
2022-08-18T09:44:11.984Z,22.98
2022-08-18T09:46:47.565Z,22.85
2022-08-18T09:49:23.795Z,22.64
2022-08-18T09:51:57.342Z,22.28
2022-08-18T09:54:28.075Z,22.04
2022-08-18T09:57:03.578Z,21.97
2022-08-18T09:59:35.254Z,21.77
2022-08-18T10:02:20.045Z,21.68
2022-08-18T10:04:51.307Z,21.55
2022-08-18T10:07:35.339Z,21.32
2022-08-18T10:10:59.713Z,21.20
2022-08-18T10:13:52.085Z,21.19
2022-08-18T10:17:23.554Z,21.14
2022-08-18T10:20:26.398Z,21.11
2022-08-18T10:22:55.465Z,21.12
2022-08-18T10:25:41.331Z,21.14
2022-08-18T10:28:34.940Z,21.13
2022-08-18T10:31:10.244Z,21.12
2022-08-18T10:33:58.109Z,21.08
2022-08-18T10:36:49.181Z,20.89
2022-08-18T10:51:59.282Z,20.39
2022-08-18T10:58:00.507Z,20.57
2022-08-18T11:00:38.979Z,20.73
2022-08-18T11:03:49.924Z,20.91
2022-08-18T11:06:21.178Z,21.08
2022-08-18T11:08:54.722Z,21.42
2022-08-18T11:11:52.728Z,22.23
2022-08-18T11:14:35.446Z,22.61
2022-08-18T11:17:34.572Z,22.84
2022-08-18T11:20:06.020Z,22.99
2022-08-18T11:22:35.681Z,23.36
2022-08-18T11:25:17.311Z,23.65
2022-08-18T11:27:47.158Z,23.94
2022-08-18T11:30:17.739Z,24.03
2022-08-18T11:35:35.484Z,24.29
2022-08-18T11:38:05.302Z,24.29
2022-08-18T11:41:09.609Z,24.62
2022-08-18T11:43:40.717Z,24.82
2022-08-18T11:46:14.038Z,24.96
2022-08-18T11:48:52.277Z,24.95
2022-08-18T11:51:52.981Z,25.44
2022-08-18T11:54:23.533Z,25.45
2022-08-18T11:56:51.516Z,25.57
2022-08-18T11:59:52.292Z,26.05
2022-08-18T12:02:20.938Z,26.31
2022-08-18T12:04:56.941Z,26.38
2022-08-18T12:10:29.809Z,26.90
2022-08-18T12:13:00.742Z,27.40
2022-08-18T12:15:43.652Z,27.71
2022-08-18T12:18:26.582Z,27.47
2022-08-18T12:20:57.552Z,25.16
2022-08-18T12:23:24.271Z,24.62
2022-08-18T12:25:51.953Z,24.28
2022-08-18T12:28:19.645Z,24.46
2022-08-18T12:30:56.035Z,24.23
2022-08-18T12:36:11.171Z,23.91
2022-08-18T12:38:43.534Z,23.79
2022-08-18T12:41:12.128Z,23.81
2022-08-18T12:43:39.953Z,23.85
2022-08-18T12:46:11.916Z,24.29
2022-08-18T12:48:39.735Z,24.55
2022-08-18T12:51:07.534Z,25.22
2022-08-18T12:53:57.817Z,25.74
2022-08-18T12:56:25.652Z,26.12
2022-08-18T12:58:53.242Z,25.86
2022-08-18T13:01:21.543Z,25.81
2022-08-18T13:03:52.741Z,26.12
2022-08-18T13:06:41.360Z,26.34
2022-08-18T13:09:35.285Z,26.39
2022-08-18T13:12:16.091Z,26.41
2022-08-18T13:14:44.018Z,26.67
2022-08-18T13:17:30.347Z,27.02
2022-08-18T13:19:59.691Z,27.41
2022-08-18T13:22:32.385Z,27.09
2022-08-18T13:25:05.247Z,27.55
2022-08-18T13:27:33.678Z,27.34
2022-08-18T13:30:29.744Z,28.09
2022-08-18T13:32:58.407Z,27.53
2022-08-18T13:35:26.180Z,27.58
2022-08-18T13:37:56.917Z,27.78
2022-08-18T13:40:23.834Z,28.04
2022-08-18T13:42:57.095Z,28.34
2022-08-18T13:45:25.687Z,28.10
2022-08-18T13:47:52.859Z,27.74
2022-08-18T13:50:21.019Z,27.84
2022-08-18T13:53:01.127Z,28.40
2022-08-18T13:55:29.054Z,28.08
2022-08-18T13:57:56.343Z,28.27
2022-08-18T14:00:29.848Z,28.40
2022-08-18T14:03:03.547Z,28.42
2022-08-18T14:05:50.835Z,28.49
2022-08-18T14:08:19.013Z,28.35
2022-08-18T14:10:50.801Z,27.96
2022-08-18T14:13:20.869Z,27.76
2022-08-18T14:15:54.729Z,27.68
2022-08-18T14:18:28.965Z,27.89
2022-08-18T14:21:16.369Z,27.67
2022-08-18T14:24:05.777Z,28.06
2022-08-18T14:26:50.160Z,27.69
2022-08-18T14:29:46.063Z,27.69
2022-08-18T14:32:06.402Z,28.28
2022-08-18T14:34:33.261Z,27.88
2022-08-18T14:37:00.099Z,28.14
2022-08-18T14:39:27.555Z,28.45
2022-08-18T14:41:56.125Z,28.58
2022-08-18T14:44:26.169Z,28.32
2022-08-18T14:46:58.646Z,28.14
2022-08-18T14:49:29.438Z,28.27
2022-08-18T14:52:00.944Z,28.75
2022-08-18T14:54:30.126Z,26.57
2022-08-18T14:56:58.435Z,25.60
2022-08-18T14:59:25.482Z,25.62
2022-08-18T15:01:52.501Z,25.55
2022-08-18T15:04:21.348Z,25.50
2022-08-18T15:06:56.770Z,25.81
2022-08-18T15:09:29.907Z,25.77
2022-08-18T15:11:58.524Z,26.15
2022-08-18T15:14:33.004Z,26.26
2022-08-18T15:17:01.891Z,26.16
2022-08-18T15:19:58.302Z,26.42
2022-08-18T15:22:33.940Z,26.39
2022-08-18T15:25:21.214Z,26.43
2022-08-18T15:27:52.470Z,26.55
2022-08-18T15:30:19.864Z,26.43
2022-08-18T15:32:50.247Z,26.56
2022-08-18T15:35:19.492Z,26.53
2022-08-18T15:37:51.427Z,26.91
2022-08-18T15:40:31.033Z,26.78
2022-08-18T15:43:09.878Z,26.82
2022-08-18T15:45:56.226Z,26.74
2022-08-18T15:48:29.687Z,26.92
2022-08-18T15:50:56.985Z,26.98
2022-08-18T15:53:29.968Z,27.04
2022-08-18T15:55:57.207Z,26.92
2022-08-18T15:58:26.694Z,26.93
2022-08-18T16:00:55.477Z,27.26
2022-08-18T16:03:22.189Z,27.00
2022-08-18T16:05:52.905Z,27.18
2022-08-18T16:08:22.044Z,26.68
2022-08-18T16:10:48.937Z,26.45
2022-08-18T16:13:15.934Z,26.67
2022-08-18T16:15:46.844Z,26.78
2022-08-18T16:18:15.685Z,27.08
2022-08-18T16:20:43.532Z,26.77
2022-08-18T16:23:14.844Z,26.82
2022-08-18T16:25:44.645Z,26.97
2022-08-18T16:28:14.536Z,26.61
2022-08-18T16:30:41.548Z,26.92
2022-08-18T16:33:08.907Z,26.93
2022-08-18T16:35:37.510Z,26.78
2022-08-18T16:38:09.187Z,27.16
2022-08-18T16:40:40.750Z,26.90
2022-08-18T16:43:08.220Z,26.95
2022-08-18T16:45:40.146Z,27.04
2022-08-18T16:48:08.314Z,26.99
2022-08-18T16:50:37.625Z,27.38
2022-08-18T16:53:06.561Z,27.01
2022-08-18T16:55:34.195Z,27.08
2022-08-18T16:58:32.414Z,27.04
2022-08-18T17:01:18.916Z,27.17
2022-08-18T17:04:04.887Z,27.00
2022-08-18T17:06:47.221Z,26.89
2022-08-18T17:09:15.271Z,26.87
2022-08-18T17:11:47.961Z,27.01
2022-08-18T17:14:20.663Z,26.78
2022-08-18T17:16:49.661Z,26.87
2022-08-18T17:19:18.956Z,26.74
2022-08-18T17:21:48.198Z,26.83
2022-08-18T17:24:15.049Z,26.52
2022-08-18T17:26:54.071Z,26.76
2022-08-18T17:29:43.993Z,26.91
2022-08-18T17:32:20.232Z,26.87
2022-08-18T17:34:52.149Z,26.58
2022-08-18T17:37:23.247Z,26.40
2022-08-18T17:40:02.344Z,26.37
2022-08-18T17:42:31.367Z,26.20
2022-08-18T17:45:05.121Z,26.33
2022-08-18T17:47:38.528Z,26.20
2022-08-18T17:50:34.026Z,26.18
2022-08-18T17:53:06.730Z,26.11
2022-08-18T17:55:50.650Z,25.85
2022-08-18T17:58:40.550Z,25.91
2022-08-18T18:01:09.158Z,25.88
2022-08-18T18:03:36.870Z,25.78
2022-08-18T18:06:32.959Z,25.72
2022-08-18T18:09:18.298Z,25.69
2022-08-18T18:11:47.948Z,25.92
2022-08-18T18:14:26.350Z,25.91
2022-08-18T18:17:14.482Z,26.00
2022-08-18T18:19:43.088Z,25.86
2022-08-18T18:22:19.492Z,25.92
2022-08-18T18:25:00.290Z,26.01
2022-08-18T18:27:43.399Z,25.84
2022-08-18T18:30:27.318Z,25.94
2022-08-18T18:33:15.131Z,25.90
2022-08-18T18:35:50.066Z,25.72
2022-08-18T18:38:35.264Z,25.99
2022-08-18T18:41:13.027Z,25.85
2022-08-18T18:43:46.772Z,25.80
2022-08-18T18:46:23.236Z,26.13
2022-08-18T18:49:20.361Z,26.04
2022-08-18T18:51:55.865Z,25.87
2022-08-18T18:54:34.495Z,26.02
2022-08-18T18:57:03.541Z,25.98
2022-08-18T18:59:45.977Z,25.99
2022-08-18T19:02:40.159Z,25.99
2022-08-18T19:05:17.898Z,25.56
2022-08-18T19:08:01.159Z,25.72
2022-08-18T19:10:38.211Z,25.61
2022-08-18T19:13:12.078Z,25.43
2022-08-18T19:16:03.284Z,25.47
2022-08-18T19:18:38.897Z,25.57
2022-08-18T19:22:01.787Z,25.50
2022-08-18T19:24:14.928Z,25.49
2022-08-18T19:26:55.135Z,25.64
2022-08-18T19:29:27.817Z,25.76
2022-08-18T19:32:24.272Z,25.61
2022-08-18T19:34:54.537Z,25.55
2022-08-18T19:37:46.670Z,25.75
2022-08-18T19:40:32.261Z,25.53
2022-08-18T19:43:26.655Z,25.67
2022-08-18T19:46:11.121Z,25.70
2022-08-18T19:48:53.143Z,25.54
2022-08-18T19:51:29.168Z,25.43
2022-08-18T19:54:13.742Z,25.44
2022-08-18T19:56:55.387Z,25.23
2022-08-18T19:59:51.154Z,25.49
2022-08-18T20:02:25.628Z,25.24
2022-08-18T20:05:07.476Z,25.35
2022-08-18T20:08:01.003Z,25.30
2022-08-18T20:10:33.517Z,25.00
2022-08-18T20:13:02.939Z,25.09
2022-08-18T20:15:31.093Z,25.18
2022-08-18T20:17:57.722Z,25.38
2022-08-18T20:20:29.748Z,25.40
2022-08-18T20:22:58.642Z,25.54
2022-08-18T20:25:28.265Z,25.38
2022-08-18T20:28:00.643Z,25.56
2022-08-18T20:30:32.782Z,25.53
2022-08-18T20:33:18.194Z,25.57
2022-08-18T20:36:11.488Z,25.39
2022-08-18T20:38:47.290Z,25.53
2022-08-18T20:41:47.355Z,25.53
2022-08-18T20:44:37.938Z,25.37
2022-08-18T20:47:35.033Z,25.37
2022-08-18T20:50:33.603Z,25.22
2022-08-18T20:53:25.454Z,25.25
2022-08-18T20:56:13.077Z,25.48
2022-08-18T20:59:22.577Z,25.65
2022-08-18T21:01:58.793Z,25.61
2022-08-18T21:04:45.255Z,25.72
2022-08-18T21:07:36.142Z,25.61
2022-08-18T21:10:21.414Z,25.23
2022-08-18T21:12:53.141Z,25.14
2022-08-18T21:15:26.918Z,24.96
2022-08-18T21:18:01.702Z,25.11
2022-08-18T21:20:29.245Z,25.08
2022-08-18T21:23:09.730Z,25.33
2022-08-18T21:25:40.850Z,25.13
2022-08-18T21:28:07.506Z,25.13
2022-08-18T21:30:34.294Z,25.15
2022-08-18T21:33:02.090Z,25.08
2022-08-18T21:35:38.388Z,25.03
2022-08-18T21:38:07.788Z,24.66
2022-08-18T21:40:38.606Z,24.59
2022-08-18T21:43:10.898Z,25.09
2022-08-18T21:45:47.851Z,25.31
2022-08-18T21:48:15.354Z,25.02
2022-08-18T21:50:51.402Z,25.22
2022-08-18T21:53:28.279Z,25.18
2022-08-18T21:55:57.347Z,25.09
2022-08-18T21:58:49.836Z,25.39
2022-08-18T22:01:23.994Z,25.39
2022-08-18T22:03:59.459Z,25.27
2022-08-18T22:06:34.561Z,25.22
2022-08-18T22:09:28.280Z,25.33
2022-08-18T22:12:42.907Z,25.15
2022-08-18T22:15:27.609Z,25.12
2022-08-18T22:18:08.957Z,24.92
2022-08-18T22:20:57.732Z,25.07
2022-08-18T22:23:51.021Z,25.10
2022-08-18T22:26:17.685Z,24.69
2022-08-18T22:28:51.398Z,24.93
2022-08-18T22:31:21.279Z,24.82
2022-08-18T22:33:49.679Z,24.86
2022-08-18T22:36:21.084Z,24.98
2022-08-18T22:38:48.852Z,24.87
2022-08-18T22:41:16.845Z,24.82
2022-08-18T22:43:44.051Z,24.67
2022-08-18T22:46:11.086Z,24.82
2022-08-18T22:48:38.367Z,24.94
2022-08-18T22:51:05.764Z,24.91
2022-08-18T22:53:32.382Z,24.88
2022-08-18T22:56:05.790Z,24.92
2022-08-18T22:58:32.946Z,24.94
2022-08-18T23:01:05.472Z,24.98
2022-08-18T23:03:41.893Z,24.78
2022-08-18T23:06:10.163Z,25.03
2022-08-18T23:08:55.054Z,24.77
2022-08-18T23:11:24.096Z,24.71
2022-08-18T23:13:51.472Z,24.71
2022-08-18T23:16:31.456Z,24.49
2022-08-18T23:19:03.504Z,24.65
2022-08-18T23:21:34.843Z,24.50
2022-08-18T23:24:04.948Z,24.39
2022-08-18T23:26:32.057Z,24.29
2022-08-18T23:28:58.925Z,24.18
2022-08-18T23:31:25.987Z,23.96
2022-08-18T23:33:52.933Z,23.88
2022-08-18T23:36:19.641Z,24.00
2022-08-18T23:38:46.379Z,24.15
2022-08-18T23:41:15.098Z,24.52
2022-08-18T23:43:42.473Z,24.62
2022-08-18T23:46:23.723Z,25.01
2022-08-18T23:48:52.245Z,24.72
2022-08-18T23:51:24.569Z,25.04
2022-08-18T23:53:52.709Z,25.00
2022-08-18T23:56:22.582Z,24.94
2022-08-18T23:58:53.976Z,25.09
